Time;durP1;ratioP1;P1;durP2;ratioP2;P2;SDS_P1;SDS_P2;PMS_P1;PMS_P2;Temp;Humidity;BMP_temperature;BMP_pressure;BME280_temperature;BME280_humidity;BME280_pressure;Samples;Min_cycle;Max_cycle;Signal;HPM_P1;HPM_P2
2022/11/12 00:01:21;;;;;;;20.35;14.40;;;6.80;99.90;;;;;;4984879;28;20396;-59
2022/11/12 00:03:47;;;;;;;19.33;13.95;;;6.80;99.90;;;;;;4983976;28;20057;-59
2022/11/12 00:06:13;;;;;;;18.05;13.80;;;6.60;99.90;;;;;;4984150;28;20120;-59
2022/11/12 00:08:38;;;;;;;16.33;14.35;;;6.80;99.90;;;;;;4985594;28;20470;-60
2022/11/12 00:11:04;;;;;;;20.05;14.82;;;6.70;99.90;;;;;;4983812;28;20883;-60
2022/11/12 00:13:30;;;;;;;19.42;15.00;;;6.50;99.90;;;;;;4984439;28;20043;-59
2022/11/12 00:15:56;;;;;;;20.05;14.88;;;6.50;99.90;;;;;;4983867;28;20038;-60
2022/11/12 00:18:23;;;;;;;20.13;15.20;;;6.60;99.90;;;;;;4983847;28;20054;-60
2022/11/12 00:20:48;;;;;;;18.88;14.38;;;6.60;99.90;;;;;;4983592;28;20101;-60
2022/11/12 00:23:14;;;;;;;19.52;14.15;;;6.60;99.90;;;;;;4983913;28;20382;-60
2022/11/12 00:25:40;;;;;;;16.98;13.43;;;6.60;99.90;;;;;;4984393;28;20410;-60
2022/11/12 00:28:08;;;;;;;18.83;15.30;;;6.50;99.90;;;;;;4984855;28;20046;-60
2022/11/12 00:30:37;;;;;;;16.98;14.05;;;6.80;99.90;;;;;;4984673;28;20121;-60
2022/11/12 00:33:03;;;;;;;18.17;13.00;;;6.80;99.90;;;;;;4985401;28;20052;-60
2022/11/12 00:35:33;;;;;;;17.65;12.20;;;6.70;99.90;;;;;;4999338;28;20046;-59
2022/11/12 00:37:59;;;;;;;20.17;15.45;;;6.50;99.90;;;;;;4984061;28;20042;-60
2022/11/12 00:40:25;;;;;;;19.40;15.27;;;6.60;99.90;;;;;;4998299;28;20046;-59
2022/11/12 00:42:52;;;;;;;18.52;14.48;;;6.80;99.90;;;;;;4983310;28;20098;-59
2022/11/12 00:45:21;;;;;;;18.88;14.05;;;6.70;99.90;;;;;;4983681;28;20104;-60
2022/11/12 00:47:46;;;;;;;20.30;15.27;;;6.80;99.90;;;;;;4984085;28;20045;-60
2022/11/12 00:50:13;;;;;;;18.30;12.82;;;6.70;99.90;;;;;;4984601;28;20035;-60
2022/11/12 00:52:39;;;;;;;20.27;14.05;;;6.80;99.90;;;;;;4984165;28;20053;-59
2022/11/12 00:55:04;;;;;;;19.33;15.00;;;7.00;99.90;;;;;;4997943;28;20413;-60
2022/11/12 00:57:30;;;;;;;19.17;14.75;;;6.80;99.90;;;;;;4983919;28;20038;-60
2022/11/12 00:59:56;;;;;;;21.60;15.35;;;6.80;99.90;;;;;;4982722;28;20180;-60
2022/11/12 01:02:21;;;;;;;18.65;14.93;;;7.20;99.90;;;;;;4984041;28;20235;-60
2022/11/12 01:04:47;;;;;;;20.95;15.35;;;7.00;99.90;;;;;;4982764;28;20038;-60
2022/11/12 01:07:14;;;;;;;20.83;14.88;;;6.80;99.90;;;;;;4983347;28;20319;-59
2022/11/12 01:09:40;;;;;;;20.90;15.63;;;7.00;99.90;;;;;;4983640;28;20150;-60
2022/11/12 01:12:06;;;;;;;18.20;14.65;;;6.80;99.90;;;;;;4982752;28;20046;-60
2022/11/12 01:14:32;;;;;;;22.17;16.80;;;6.90;99.90;;;;;;4982739;28;20047;-60
2022/11/12 01:16:57;;;;;;;22.65;15.85;;;6.80;99.90;;;;;;4984043;28;20034;-60
2022/11/12 01:19:23;;;;;;;22.23;16.05;;;6.80;99.90;;;;;;4983959;28;20704;-60
2022/11/12 01:21:49;;;;;;;21.13;16.38;;;7.00;99.90;;;;;;4983070;28;20077;-60
2022/11/12 01:24:14;;;;;;;20.30;15.30;;;6.80;99.90;;;;;;4982293;28;20046;-57
2022/11/12 01:26:40;;;;;;;22.75;16.63;;;6.90;99.90;;;;;;4983725;28;20125;-58
2022/11/12 01:29:06;;;;;;;22.88;17.40;;;6.80;99.90;;;;;;4984452;28;20047;-59
2022/11/12 01:31:37;;;;;;;20.10;16.05;;;6.90;99.90;;;;;;4983295;28;20087;-60
2022/11/12 01:34:08;;;;;;;19.70;16.17;;;6.90;99.90;;;;;;4983283;28;20645;-60
2022/11/12 01:36:37;;;;;;;21.15;16.30;;;7.10;99.90;;;;;;4983471;28;20074;-60
2022/11/12 01:39:07;;;;;;;21.35;16.08;;;6.80;99.90;;;;;;4983716;28;20045;-59
2022/11/12 01:41:35;;;;;;;20.85;15.35;;;6.90;99.90;;;;;;4983345;28;20088;-60
2022/11/12 01:44:12;;;;;;;22.08;16.77;;;6.80;99.90;;;;;;4983561;28;20116;-60
2022/11/12 01:46:55;;;;;;;21.55;17.33;;;6.90;99.90;;;;;;4983942;28;20050;-60
2022/11/12 01:49:38;;;;;;;21.35;17.33;;;6.80;99.90;;;;;;4982715;28;20219;-60
2022/11/12 01:52:22;;;;;;;21.67;17.08;;;6.80;99.90;;;;;;4984291;28;20046;-60
2022/11/12 01:54:52;;;;;;;23.75;17.45;;;6.60;99.90;;;;;;4982547;28;20069;-60
2022/11/12 01:57:22;;;;;;;21.33;17.55;;;6.70;99.90;;;;;;4983863;28;20065;-60
2022/11/12 01:59:50;;;;;;;23.42;18.15;;;6.70;99.90;;;;;;4987355;28;20046;-60
2022/11/12 02:02:16;;;;;;;22.55;18.08;;;6.60;99.90;;;;;;4987113;28;20444;-60
2022/11/12 02:04:42;;;;;;;23.00;17.63;;;6.50;99.90;;;;;;4986979;28;20560;-60
2022/11/12 02:07:09;;;;;;;24.08;18.40;;;6.80;99.90;;;;;;4987864;28;20043;-60
2022/11/12 02:09:35;;;;;;;22.13;18.77;;;6.50;99.90;;;;;;4986732;28;20046;-60
2022/11/12 02:12:01;;;;;;;24.90;18.92;;;6.80;99.90;;;;;;4985972;28;20510;-60
2022/11/12 02:14:27;;;;;;;22.63;19.00;;;6.60;99.90;;;;;;4987153;28;20054;-60
2022/11/12 02:16:53;;;;;;;24.83;18.30;;;6.70;99.90;;;;;;4987348;28;20042;-60
2022/11/12 02:19:19;;;;;;;25.23;18.00;;;6.70;99.90;;;;;;4987461;28;20042;-60
2022/11/12 02:21:45;;;;;;;24.00;18.25;;;6.70;99.90;;;;;;4986801;28;20053;-60
2022/11/12 02:24:11;;;;;;;23.10;19.05;;;6.40;99.90;;;;;;4987447;28;20050;-60
2022/11/12 02:26:41;;;;;;;24.50;20.10;;;6.50;99.90;;;;;;4986680;28;20089;-59
2022/11/12 02:29:07;;;;;;;23.88;18.90;;;6.40;99.90;;;;;;4987230;28;20133;-58
2022/11/12 02:31:33;;;;;;;24.77;19.40;;;6.50;99.90;;;;;;4987580;28;20126;-60
2022/11/12 02:33:59;;;;;;;28.83;19.88;;;6.40;99.90;;;;;;4986887;28;20117;-59
2022/11/12 02:36:25;;;;;;;26.55;19.73;;;6.80;99.90;;;;;;4985239;28;20050;-60
2022/11/12 02:38:51;;;;;;;24.77;19.35;;;6.80;99.90;;;;;;4986355;28;20133;-59
2022/11/12 02:41:17;;;;;;;26.20;19.90;;;6.40;99.90;;;;;;4985848;28;20114;-61
2022/11/12 02:43:43;;;;;;;25.13;19.80;;;6.50;99.90;;;;;;4986972;28;20049;-60
2022/11/12 02:46:08;;;;;;;27.50;20.70;;;6.40;99.90;;;;;;4986184;28;20046;-60
2022/11/12 02:48:34;;;;;;;28.95;20.58;;;6.50;99.90;;;;;;4986599;28;20041;-60
2022/11/12 02:51:00;;;;;;;25.70;21.17;;;6.40;99.90;;;;;;4986880;28;20097;-60
2022/11/12 02:53:25;;;;;;;28.83;20.70;;;6.40;99.90;;;;;;4986307;28;20038;-59
2022/11/12 02:55:51;;;;;;;24.67;20.65;;;6.50;99.90;;;;;;4985036;28;20050;-59
2022/11/12 02:58:17;;;;;;;25.75;20.90;;;6.40;99.90;;;;;;4986490;28;20062;-60
2022/11/12 03:00:43;;;;;;;26.27;20.75;;;6.40;99.90;;;;;;4986770;28;20042;-60
2022/11/12 03:03:09;;;;;;;27.80;20.58;;;6.30;99.90;;;;;;4986311;28;20050;-60
2022/11/12 03:05:35;;;;;;;25.15;21.45;;;6.30;99.90;;;;;;4984892;28;20078;-60
2022/11/12 03:08:04;;;;;;;29.38;21.63;;;6.40;99.90;;;;;;4986079;28;20097;-60
2022/11/12 03:10:30;;;;;;;25.75;21.25;;;6.20;99.90;;;;;;4984838;28;20054;-59
2022/11/12 03:12:58;;;;;;;27.63;21.88;;;6.30;99.90;;;;;;4985436;28;20482;-60
2022/11/12 03:15:24;;;;;;;28.33;22.15;;;6.20;99.90;;;;;;4985274;28;20043;-59
2022/11/12 03:17:50;;;;;;;24.98;22.10;;;6.60;99.90;;;;;;4985212;28;20039;-60
2022/11/12 03:20:16;;;;;;;30.05;22.17;;;6.40;99.90;;;;;;4985923;28;20111;-59
2022/11/12 03:22:42;;;;;;;28.83;21.98;;;6.30;99.90;;;;;;4985017;28;20694;-60
2022/11/12 03:25:08;;;;;;;27.42;20.80;;;6.20;99.90;;;;;;4984867;28;20054;-60
2022/11/12 03:27:34;;;;;;;27.08;21.05;;;6.20;99.90;;;;;;4984139;28;20038;-61
2022/11/12 03:30:00;;;;;;;25.42;20.65;;;6.10;99.90;;;;;;4984549;28;20498;-60
2022/11/12 03:32:26;;;;;;;28.40;20.88;;;6.00;99.90;;;;;;4984599;28;20058;-60
2022/11/12 03:34:51;;;;;;;26.17;20.70;;;6.10;99.90;;;;;;4983285;28;20047;-60
2022/11/12 03:37:17;;;;;;;27.27;22.10;;;5.90;99.90;;;;;;4984605;28;20038;-60
2022/11/12 03:39:43;;;;;;;26.00;20.15;;;5.80;99.90;;;;;;4983371;28;20041;-61
2022/11/12 03:42:09;;;;;;;26.52;21.27;;;6.00;99.90;;;;;;4982935;28;20050;-60
2022/11/12 03:44:34;;;;;;;27.40;21.83;;;5.80;99.90;;;;;;4983545;28;20046;-59
2022/11/12 03:47:00;;;;;;;32.05;23.08;;;5.90;99.90;;;;;;4983596;28;20169;-60
2022/11/12 03:49:26;;;;;;;25.05;22.17;;;5.60;99.90;;;;;;4983984;28;20502;-60
2022/11/12 03:51:51;;;;;;;27.83;21.48;;;5.70;99.90;;;;;;4984413;28;20057;-60
2022/11/12 03:54:17;;;;;;;28.67;20.35;;;5.70;99.90;;;;;;4984832;28;20061;-59
2022/11/12 03:56:42;;;;;;;26.83;20.98;;;6.20;99.90;;;;;;4984174;28;20474;-60
2022/11/12 03:59:09;;;;;;;26.70;20.48;;;5.50;99.90;;;;;;4985138;28;20153;-59
2022/11/12 04:01:34;;;;;;;28.02;21.25;;;5.60;99.90;;;;;;4967725;28;20145;-60
2022/11/12 04:04:00;;;;;;;28.67;22.15;;;5.60;99.90;;;;;;4984350;28;20804;-60
2022/11/12 04:09:10;;;;;;;28.30;21.45;;;5.50;99.90;;;;;;4983655;28;20053;-60
2022/11/12 04:11:35;;;;;;;29.25;22.05;;;5.40;99.90;;;;;;4983941;28;20054;-58
2022/11/12 04:14:01;;;;;;;29.42;22.50;;;5.50;99.90;;;;;;4984471;28;20100;-60
2022/11/12 04:21:59;;;;;;;28.45;21.75;;;5.40;99.90;;;;;;4984644;28;20416;-58
2022/11/12 04:27:16;;;;;;;28.88;21.08;;;5.30;99.90;;;;;;4984399;28;20089;-60
2022/11/12 04:32:29;;;;;;;26.83;19.65;;;5.30;99.90;;;;;;4984564;28;20053;-60
2022/11/12 04:34:55;;;;;;;26.83;20.77;;;5.30;99.90;;;;;;4984594;28;20051;-60
2022/11/12 04:37:22;;;;;;;25.80;18.65;;;5.80;99.90;;;;;;4983835;28;20034;-60
2022/11/12 04:39:48;;;;;;;25.10;18.42;;;5.40;99.90;;;;;;4984320;28;20092;-59
2022/11/12 04:45:04;;;;;;;23.85;18.88;;;5.50;99.90;;;;;;4983956;28;20165;-59
2022/11/12 04:47:42;;;;;;;28.17;19.08;;;5.40;99.90;;;;;;4983025;28;20695;-59
2022/11/12 04:50:17;;;;;;;23.77;18.45;;;5.50;99.90;;;;;;4983790;28;20051;-59
2022/11/12 04:52:43;;;;;;;24.60;17.58;;;5.30;99.90;;;;;;4984278;28;20409;-60
2022/11/12 04:55:10;;;;;;;24.10;17.00;;;5.40;99.90;;;;;;4983585;28;20089;-60
2022/11/12 04:57:37;;;;;;;24.77;17.98;;;5.60;99.90;;;;;;4983214;28;20068;-58
2022/11/12 05:00:04;;;;;;;24.98;17.35;;;5.40;99.90;;;;;;4984505;28;20483;-60
2022/11/12 05:02:29;;;;;;;24.33;17.25;;;5.40;99.90;;;;;;4984385;28;20042;-60
2022/11/12 05:04:55;;;;;;;26.52;16.92;;;5.50;99.90;;;;;;4983293;28;20040;-60
2022/11/12 05:07:21;;;;;;;25.35;17.20;;;5.50;99.90;;;;;;4974787;28;20064;-60
2022/11/12 05:09:46;;;;;;;22.40;16.42;;;5.60;99.90;;;;;;4983515;28;20563;-61
2022/11/12 05:12:12;;;;;;;21.33;15.70;;;5.40;99.90;;;;;;4984227;28;20065;-60
2022/11/12 05:14:38;;;;;;;21.15;14.77;;;5.70;99.90;;;;;;4984235;28;20038;-60
2022/11/12 05:17:05;;;;;;;23.63;16.17;;;5.50;99.90;;;;;;4983405;28;20042;-60
2022/11/12 05:19:30;;;;;;;23.17;16.13;;;5.30;99.90;;;;;;4983899;28;20133;-61
2022/11/12 05:22:05;;;;;;;23.15;16.10;;;5.40;99.90;;;;;;4984333;28;20142;-60
2022/11/12 05:24:42;;;;;;;23.23;16.15;;;5.30;99.90;;;;;;4982867;28;20121;-60
2022/11/12 05:27:14;;;;;;;20.85;15.02;;;5.30;99.90;;;;;;4983760;28;20053;-58
2022/11/12 05:29:40;;;;;;;21.30;14.02;;;5.30;99.90;;;;;;4983571;28;20445;-60
2022/11/12 05:32:07;;;;;;;22.90;14.27;;;5.10;99.90;;;;;;4982385;28;20042;-60
2022/11/12 05:34:33;;;;;;;21.15;14.88;;;5.20;99.90;;;;;;4983808;28;20058;-56
2022/11/12 05:37:00;;;;;;;20.27;14.05;;;5.20;99.90;;;;;;4983701;28;20576;-60
2022/11/12 05:39:26;;;;;;;17.77;12.82;;;5.20;99.90;;;;;;4982034;28;20500;-58
2022/11/12 05:41:52;;;;;;;19.90;12.13;;;5.30;99.90;;;;;;4984153;28;20086;-60
2022/11/12 05:44:18;;;;;;;20.17;12.88;;;5.30;99.90;;;;;;4983673;28;20073;-59
2022/11/12 05:46:44;;;;;;;18.80;12.88;;;5.20;99.90;;;;;;4984502;28;20054;-59
2022/11/12 05:49:10;;;;;;;20.73;13.57;;;5.50;99.90;;;;;;4982761;28;20051;-60
2022/11/12 05:51:35;;;;;;;17.67;12.85;;;5.80;99.90;;;;;;4983957;28;20386;-59
2022/11/12 05:54:01;;;;;;;17.67;12.32;;;5.20;99.90;;;;;;4983599;28;20038;-60
2022/11/12 05:56:27;;;;;;;17.23;11.88;;;5.20;99.90;;;;;;4982144;28;20050;-60
2022/11/12 05:58:52;;;;;;;17.77;13.25;;;5.20;99.90;;;;;;4983891;28;20390;-58
2022/11/12 06:01:18;;;;;;;19.90;13.43;;;5.20;99.90;;;;;;4983519;28;20502;-60
2022/11/12 06:03:44;;;;;;;19.63;13.73;;;5.30;99.90;;;;;;4983094;28;20520;-60
2022/11/12 06:06:09;;;;;;;22.63;14.45;;;5.60;99.90;;;;;;4981844;28;20050;-58
2022/11/12 06:08:35;;;;;;;21.95;13.32;;;5.30;99.90;;;;;;4983559;28;20045;-60
2022/11/12 06:11:01;;;;;;;16.70;12.80;;;5.10;99.90;;;;;;4980963;28;20062;-60
2022/11/12 06:13:27;;;;;;;19.98;13.02;;;5.00;99.90;;;;;;4983413;28;20093;-61
2022/11/12 06:15:54;;;;;;;19.00;12.60;;;5.10;99.90;;;;;;4982507;28;20043;-60
2022/11/12 06:18:20;;;;;;;21.23;13.63;;;5.10;99.90;;;;;;4981958;28;20050;-60
2022/11/12 06:21:18;;;;;;;22.08;14.10;;;5.10;99.90;;;;;;4983229;28;20142;-60
2022/11/12 06:23:31;;;;;;;18.20;12.77;;;5.00;99.90;;;;;;4983621;28;20046;-60
2022/11/12 06:25:56;;;;;;;18.42;13.60;;;5.00;99.90;;;;;;4983233;28;20100;-59
2022/11/12 06:28:22;;;;;;;21.48;12.80;;;5.10;99.90;;;;;;4983591;28;20054;-60
2022/11/12 06:30:48;;;;;;;18.77;12.95;;;5.70;99.90;;;;;;4982626;28;20125;-60
2022/11/12 06:33:13;;;;;;;20.15;13.50;;;5.10;99.90;;;;;;4981699;28;20058;-60
2022/11/12 06:35:39;;;;;;;20.70;13.23;;;5.10;99.90;;;;;;4983596;28;20046;-60
2022/11/12 06:38:05;;;;;;;19.42;12.88;;;5.00;99.90;;;;;;4982463;28;20042;-60
2022/11/12 06:40:30;;;;;;;17.23;11.13;;;5.00;99.90;;;;;;4982379;28;20056;-59
2022/11/12 06:42:57;;;;;;;17.23;12.35;;;5.30;99.90;;;;;;4983432;28;20362;-57
2022/11/12 06:45:23;;;;;;;21.38;12.52;;;4.80;99.90;;;;;;4987170;28;20053;-58
2022/11/12 06:47:49;;;;;;;20.27;13.25;;;4.80;99.90;;;;;;4985517;28;20050;-59
2022/11/12 06:50:15;;;;;;;19.13;13.30;;;4.80;99.90;;;;;;4986639;28;20053;-59
2022/11/12 06:52:41;;;;;;;21.23;13.70;;;4.80;99.90;;;;;;4986239;28;20053;-60
2022/11/12 06:55:09;;;;;;;18.83;13.30;;;4.90;99.90;;;;;;4985541;28;20108;-60
2022/11/12 06:57:35;;;;;;;21.15;13.50;;;4.90;99.90;;;;;;4986081;28;20100;-61
2022/11/12 07:00:01;;;;;;;18.40;13.43;;;4.70;99.90;;;;;;4986347;28;20490;-60
2022/11/12 07:02:26;;;;;;;20.75;14.00;;;4.80;99.90;;;;;;4986749;28;20046;-60
2022/11/12 07:04:52;;;;;;;23.13;14.20;;;4.80;99.90;;;;;;4985107;28;20465;-60
2022/11/12 07:07:17;;;;;;;19.90;14.07;;;4.80;99.90;;;;;;4986085;28;20046;-59
2022/11/12 07:09:43;;;;;;;21.02;13.38;;;4.80;99.90;;;;;;4984859;28;20046;-59
2022/11/12 07:12:09;;;;;;;22.20;13.85;;;4.70;99.90;;;;;;4985969;28;20086;-59
2022/11/12 07:14:34;;;;;;;21.13;14.05;;;4.90;99.90;;;;;;4985294;28;20126;-60
2022/11/12 07:17:00;;;;;;;22.80;16.00;;;4.80;99.90;;;;;;4986438;28;20673;-59
2022/11/12 07:19:26;;;;;;;33.50;21.90;;;5.10;99.90;;;;;;4986391;28;20523;-59
2022/11/12 07:21:51;;;;;;;33.85;22.95;;;4.90;99.90;;;;;;4986344;28;20046;-59
2022/11/12 07:24:17;;;;;;;35.03;22.88;;;4.90;99.90;;;;;;4984846;28;20077;-60
2022/11/12 07:26:42;;;;;;;35.00;24.25;;;5.20;99.90;;;;;;4985816;28;20104;-60
2022/11/12 07:29:08;;;;;;;40.13;24.20;;;5.00;99.90;;;;;;4986118;28;20149;-60
2022/11/12 07:31:34;;;;;;;37.05;22.55;;;5.00;99.90;;;;;;4985077;28;20082;-60
2022/11/12 07:34:00;;;;;;;33.10;20.65;;;5.00;99.90;;;;;;4985784;28;20719;-60
2022/11/12 07:36:25;;;;;;;30.73;18.55;;;5.30;99.90;;;;;;4986108;28;20092;-60
2022/11/12 07:38:53;;;;;;;25.83;17.23;;;5.30;99.90;;;;;;4985754;28;20050;-60
2022/11/12 07:41:21;;;;;;;29.15;18.65;;;4.90;99.90;;;;;;4984313;28;20042;-59
2022/11/12 07:43:48;;;;;;;30.00;18.25;;;5.00;99.90;;;;;;4985782;28;20054;-59
2022/11/12 07:46:18;;;;;;;22.08;16.20;;;4.90;99.90;;;;;;4985657;28;20057;-60
2022/11/12 07:48:43;;;;;;;25.05;16.23;;;5.00;99.90;;;;;;4984660;28;20081;-60
2022/11/12 07:51:14;;;;;;;24.05;15.68;;;5.40;99.90;;;;;;4985705;28;20447;-59
2022/11/12 07:53:40;;;;;;;24.70;16.35;;;5.10;99.90;;;;;;4984020;28;20046;-60
2022/11/12 07:56:09;;;;;;;27.90;16.88;;;5.20;99.90;;;;;;4982990;28;20062;-60
2022/11/12 07:58:34;;;;;;;24.90;17.80;;;5.10;99.90;;;;;;4985478;28;20047;-60
2022/11/12 08:01:17;;;;;;;28.42;17.13;;;5.20;99.90;;;;;;4985627;28;20046;-59
2022/11/12 08:03:42;;;;;;;24.85;16.52;;;5.30;99.90;;;;;;4985030;28;20047;-59
2022/11/12 08:06:08;;;;;;;22.00;16.55;;;5.50;99.90;;;;;;4984446;28;20065;-58
2022/11/12 08:08:33;;;;;;;23.50;16.80;;;5.30;99.90;;;;;;4985021;28;20147;-60
2022/11/12 08:10:59;;;;;;;24.75;16.65;;;5.50;99.90;;;;;;4984994;28;20678;-60
2022/11/12 08:13:25;;;;;;;23.70;17.45;;;5.40;99.90;;;;;;4984301;28;20786;-60
2022/11/12 08:15:51;;;;;;;25.42;17.42;;;5.60;99.90;;;;;;4985011;28;20050;-61
2022/11/12 08:18:17;;;;;;;28.58;18.92;;;5.60;99.90;;;;;;4984949;28;20043;-59
2022/11/12 08:20:43;;;;;;;26.13;17.65;;;5.70;99.90;;;;;;4984608;28;20050;-60
2022/11/12 08:23:09;;;;;;;21.27;16.15;;;6.00;99.90;;;;;;4983143;28;20046;-60
2022/11/12 08:25:35;;;;;;;23.30;16.42;;;5.80;99.90;;;;;;4983911;28;20070;-60
2022/11/12 08:28:01;;;;;;;23.92;15.93;;;6.20;99.90;;;;;;4985093;28;20087;-60
2022/11/12 08:30:28;;;;;;;22.90;15.30;;;5.50;99.90;;;;;;4984135;28;20070;-60
2022/11/12 08:32:59;;;;;;;20.48;15.95;;;5.60;99.90;;;;;;4984105;28;20509;-60
2022/11/12 08:35:26;;;;;;;21.50;16.10;;;5.60;99.90;;;;;;4983912;28;20666;-59
2022/11/12 08:38:00;;;;;;;27.33;17.70;;;5.60;99.90;;;;;;4984114;28;20101;-60
2022/11/12 08:40:27;;;;;;;28.40;18.38;;;5.60;99.90;;;;;;4982446;28;20350;-60
2022/11/12 08:43:01;;;;;;;25.45;17.33;;;5.60;99.90;;;;;;4984491;28;20054;-60
2022/11/12 08:45:27;;;;;;;37.33;19.05;;;5.50;99.90;;;;;;4984121;28;20046;-60
2022/11/12 08:47:58;;;;;;;35.53;19.35;;;5.50;99.90;;;;;;4984116;28;20043;-59
2022/11/12 08:50:23;;;;;;;42.17;19.52;;;5.80;99.90;;;;;;4983107;28;20545;-60
2022/11/12 08:52:49;;;;;;;46.58;21.75;;;5.70;99.90;;;;;;4983200;28;20165;-60
2022/11/12 08:55:15;;;;;;;56.72;23.40;;;5.80;99.90;;;;;;4983705;28;20046;-60
2022/11/12 08:57:41;;;;;;;49.65;23.35;;;5.80;99.90;;;;;;4983541;28;20039;-60
2022/11/12 09:00:11;;;;;;;55.33;25.08;;;5.90;99.90;;;;;;4983520;28;20037;-60
2022/11/12 09:02:37;;;;;;;77.80;26.27;;;5.90;99.90;;;;;;4980270;28;20031;-60
2022/11/12 09:05:03;;;;;;;70.55;26.60;;;5.90;99.90;;;;;;4983108;28;20088;-59
2022/11/12 09:07:29;;;;;;;71.03;26.38;;;6.00;99.90;;;;;;4982870;28;20041;-59
2022/11/12 09:09:55;;;;;;;61.88;27.33;;;5.90;99.90;;;;;;4977669;28;20058;-60
2022/11/12 09:12:21;;;;;;;67.45;29.15;;;6.10;99.90;;;;;;4983361;28;20486;-60
2022/11/12 09:14:46;;;;;;;87.78;30.65;;;6.10;99.90;;;;;;4984472;28;20054;-58
2022/11/12 09:17:12;;;;;;;97.60;29.77;;;6.10;99.90;;;;;;4983420;28;20052;-60
2022/11/12 09:19:38;;;;;;;96.80;31.48;;;6.20;99.90;;;;;;4983567;28;20477;-58
2022/11/12 09:22:04;;;;;;;125.55;31.98;;;6.30;99.90;;;;;;4983190;28;20125;-59
2022/11/12 09:24:30;;;;;;;67.50;28.40;;;6.40;99.90;;;;;;4982645;28;20034;-60
2022/11/12 09:26:55;;;;;;;132.63;32.28;;;6.20;99.90;;;;;;4981392;28;20061;-60
2022/11/12 09:29:21;;;;;;;170.50;32.35;;;6.30;99.90;;;;;;4981132;28;20081;-58
2022/11/12 09:31:47;;;;;;;137.60;32.85;;;6.40;99.90;;;;;;4982924;28;20049;-59
2022/11/12 09:34:13;;;;;;;193.98;35.13;;;6.30;99.90;;;;;;4982853;28;20681;-58
2022/11/12 09:36:39;;;;;;;126.65;35.25;;;6.40;99.90;;;;;;4997145;28;20394;-60
2022/11/12 09:39:05;;;;;;;263.45;42.63;;;6.40;99.90;;;;;;4997366;28;20089;-60
2022/11/12 09:41:34;;;;;;;103.50;36.92;;;6.60;99.90;;;;;;4982591;28;20054;-60
2022/11/12 09:44:12;;;;;;;122.88;34.65;;;6.60;99.90;;;;;;4979639;28;20524;-60
2022/11/12 09:46:56;;;;;;;155.00;35.95;;;6.80;99.90;;;;;;4964248;28;20039;-59
2022/11/12 09:49:28;;;;;;;90.93;30.83;;;6.80;99.90;;;;;;4963814;28;20047;-59
2022/11/12 09:52:13;;;;;;;253.05;36.92;;;6.90;99.90;;;;;;4963580;28;20047;-59
2022/11/12 09:54:41;;;;;;;99.38;33.13;;;6.80;99.90;;;;;;4963298;28;20414;-57
2022/11/12 09:57:15;;;;;;;160.65;35.17;;;6.90;99.90;;;;;;4963680;28;20043;-59
2022/11/12 09:59:41;;;;;;;154.98;39.47;;;6.90;99.90;;;;;;4964181;28;20098;-60
2022/11/12 10:02:37;;;;;;;133.35;42.53;;;7.00;99.90;;;;;;4964574;28;20356;-60
2022/11/12 10:05:31;;;;;;;187.48;36.30;;;7.00;99.90;;;;;;4975625;28;20034;-60
2022/11/12 10:08:19;;;;;;;173.95;38.72;;;6.90;99.90;;;;;;4982742;28;20108;-59
2022/11/12 10:11:11;;;;;;;129.43;39.97;;;7.00;99.90;;;;;;4982442;28;20074;-59
2022/11/12 10:14:31;;;;;;;105.30;38.45;;;7.10;99.90;;;;;;4955324;28;20065;-60
2022/11/12 10:17:17;;;;;;;75.18;35.22;;;7.10;99.90;;;;;;4906208;29;20048;-59
2022/11/12 10:19:59;;;;;;;72.13;35.42;;;7.00;99.90;;;;;;4980562;28;20058;-60
2022/11/12 10:22:58;;;;;;;91.53;37.83;;;6.90;99.90;;;;;;4987002;28;20073;-60
2022/11/12 10:25:24;;;;;;;70.43;36.35;;;7.10;99.90;;;;;;4986683;28;20046;-60
2022/11/12 10:27:54;;;;;;;76.13;35.58;;;7.20;99.90;;;;;;4987635;28;20096;-59
2022/11/12 10:30:22;;;;;;;60.53;36.67;;;7.10;99.90;;;;;;4985624;28;20661;-60
2022/11/12 10:32:49;;;;;;;73.75;36.83;;;7.20;99.90;;;;;;4987385;28;20050;-60
2022/11/12 10:35:20;;;;;;;58.58;35.65;;;7.10;99.90;;;;;;4986795;28;20045;-60
2022/11/12 10:38:00;;;;;;;59.58;33.97;;;7.20;99.90;;;;;;4984829;28;20076;-59
2022/11/12 10:40:36;;;;;;;77.72;39.67;;;7.20;99.90;;;;;;4986502;28;20140;-60
2022/11/12 10:43:14;;;;;;;72.38;40.05;;;7.30;99.90;;;;;;4986220;28;20132;-59
2022/11/12 10:45:40;;;;;;;63.60;41.67;;;7.30;99.90;;;;;;4986680;28;20069;-60
2022/11/12 10:48:26;;;;;;;67.35;43.25;;;7.50;99.90;;;;;;4986574;28;20056;-60
2022/11/12 10:50:52;;;;;;;62.13;42.92;;;7.40;99.90;;;;;;4986055;28;20054;-58
2022/11/12 10:53:31;;;;;;;69.65;44.63;;;7.50;99.90;;;;;;4985496;28;20050;-60
2022/11/12 10:56:03;;;;;;;67.22;46.30;;;7.70;99.90;;;;;;4985698;28;20042;-60
2022/11/12 10:58:28;;;;;;;62.05;43.40;;;7.70;99.90;;;;;;4986200;28;20050;-60
2022/11/12 11:01:06;;;;;;;62.65;43.60;;;7.70;99.90;;;;;;4986137;28;20050;-60
2022/11/12 11:03:34;;;;;;;61.03;43.90;;;7.60;99.90;;;;;;4985092;28;20113;-59
2022/11/12 11:06:04;;;;;;;62.92;46.20;;;8.00;99.90;;;;;;4985184;28;20043;-58
2022/11/12 11:08:34;;;;;;;59.03;42.08;;;8.20;99.90;;;;;;4983151;28;20042;-59
2022/11/12 11:11:13;;;;;;;54.42;41.75;;;8.50;99.90;;;;;;4980995;28;20145;-59
2022/11/12 11:13:39;;;;;;;48.47;37.90;;;8.80;99.90;;;;;;4966984;28;20062;-60
2022/11/12 11:16:07;;;;;;;38.22;31.15;;;9.00;99.90;;;;;;4964735;28;20482;-60
2022/11/12 11:18:35;;;;;;;36.30;29.42;;;9.20;99.90;;;;;;4965590;28;20102;-60
2022/11/12 11:21:31;;;;;;;32.13;27.40;;;9.10;99.90;;;;;;4966146;28;20454;-59
2022/11/12 11:24:30;;;;;;;34.42;27.50;;;9.10;99.90;;;;;;4931059;28;20051;-60
2022/11/12 11:27:33;;;;;;;38.83;27.95;;;9.30;99.90;;;;;;4982649;28;20052;-60
2022/11/12 11:30:12;;;;;;;33.45;27.00;;;9.20;99.90;;;;;;4982785;28;20038;-59
2022/11/12 11:32:46;;;;;;;30.77;24.60;;;9.10;99.90;;;;;;4979707;28;20034;-61
2022/11/12 11:35:20;;;;;;;25.95;23.15;;;9.10;99.90;;;;;;4974177;28;20042;-59
2022/11/12 11:38:28;;;;;;;30.63;25.73;;;9.10;99.90;;;;;;4976175;28;20043;-58
2022/11/12 11:41:08;;;;;;;25.65;21.33;;;9.30;99.90;;;;;;4979827;28;20081;-57
2022/11/12 11:44:14;;;;;;;23.58;19.88;;;9.20;99.90;;;;;;4984723;28;20708;-59
2022/11/12 11:46:53;;;;;;;22.60;18.38;;;9.20;99.90;;;;;;4985387;28;20089;-59
2022/11/12 11:49:49;;;;;;;21.48;18.42;;;9.40;99.90;;;;;;4984607;28;20078;-59
2022/11/12 11:52:31;;;;;;;22.92;19.23;;;9.30;99.90;;;;;;4966118;28;20497;-58
2022/11/12 11:55:16;;;;;;;20.70;18.55;;;9.50;99.90;;;;;;4983477;28;20069;-59
2022/11/12 11:58:05;;;;;;;20.52;18.33;;;9.50;99.90;;;;;;4984372;28;20073;-59
2022/11/12 12:00:53;;;;;;;22.15;18.02;;;9.50;99.90;;;;;;4982136;28;20070;-58
2022/11/12 12:03:29;;;;;;;20.30;18.10;;;9.70;99.90;;;;;;4983774;28;20046;-59
2022/11/12 12:06:03;;;;;;;18.85;16.83;;;9.60;99.90;;;;;;4984540;28;20069;-59
2022/11/12 12:08:48;;;;;;;19.25;16.88;;;9.80;99.90;;;;;;4982622;28;20740;-59
2022/11/12 12:11:36;;;;;;;19.85;17.08;;;9.70;99.90;;;;;;4983744;28;20054;-59
2022/11/12 12:14:14;;;;;;;20.58;17.52;;;9.90;99.90;;;;;;4980659;28;20050;-61
2022/11/12 12:17:13;;;;;;;19.98;15.98;;;10.00;99.90;;;;;;4984748;28;20043;-60
2022/11/12 12:20:00;;;;;;;20.13;16.70;;;10.20;99.90;;;;;;4984833;28;20508;-59
2022/11/12 12:22:36;;;;;;;20.98;16.17;;;10.40;99.90;;;;;;4984602;28;20167;-58
2022/11/12 12:25:34;;;;;;;15.50;13.25;;;10.30;99.90;;;;;;4981548;28;20042;-71
2022/11/12 12:28:06;;;;;;;19.27;15.82;;;10.60;99.90;;;;;;4978099;28;20537;-61
2022/11/12 12:30:35;;;;;;;17.67;15.18;;;10.70;99.90;;;;;;4983000;28;20815;-61
2022/11/12 12:33:16;;;;;;;17.55;15.52;;;10.90;99.90;;;;;;4984363;28;20050;-61
2022/11/12 12:35:57;;;;;;;16.20;14.25;;;11.20;99.90;;;;;;4984828;28;20077;-62
2022/11/12 12:39:01;;;;;;;18.33;14.88;;;11.20;99.90;;;;;;4983724;28;20053;-62
2022/11/12 12:41:44;;;;;;;15.18;13.45;;;11.40;99.90;;;;;;4977376;28;20449;-61
2022/11/12 12:44:10;;;;;;;16.55;14.10;;;11.20;99.90;;;;;;4984472;28;20145;-61
2022/11/12 12:46:46;;;;;;;16.92;13.70;;;11.20;99.90;;;;;;4983874;28;20118;-61
2022/11/12 12:49:18;;;;;;;16.98;13.25;;;11.00;99.90;;;;;;4982117;28;20082;-61
2022/11/12 12:51:43;;;;;;;16.17;13.85;;;11.00;99.90;;;;;;4984449;28;20145;-62
2022/11/12 12:54:34;;;;;;;15.27;12.82;;;10.90;99.90;;;;;;4983609;28;20054;-61
2022/11/12 12:57:02;;;;;;;18.27;13.27;;;11.00;99.90;;;;;;4984190;28;20133;-61
2022/11/12 12:59:28;;;;;;;16.90;13.40;;;11.30;99.90;;;;;;4983807;28;20054;-61
2022/11/12 13:02:02;;;;;;;16.10;13.02;;;11.40;99.90;;;;;;4983807;28;20046;-62
2022/11/12 13:05:20;;;;;;;16.02;13.82;;;11.40;99.90;;;;;;4981865;28;20126;-62
2022/11/12 13:07:48;;;;;;;17.10;12.68;;;11.60;99.90;;;;;;4923314;29;20126;-61